Time;durP1;ratioP1;P1;durP2;ratioP2;P2;SDS_P1;SDS_P2;PMS_P1;PMS_P2;Temp;Humidity;BMP_temperature;BMP_pressure;BME280_temperature;BME280_humidity;BME280_pressure;Samples;Min_cycle;Max_cycle;Signal;HPM_P1;HPM_P2
2022/10/02 00:01:56;;;;;;;7.78;1.20;;;36.10;57.20;;;;;;5052539;28;20037;-62
2022/10/02 00:04:36;;;;;;;11.77;1.95;;;36.10;57.60;;;;;;5047390;28;20043;-61
2022/10/02 00:07:08;;;;;;;17.88;2.15;;;36.00;57.00;;;;;;5050891;28;20036;-59
2022/10/02 00:09:59;;;;;;;4.47;1.60;;;36.00;57.20;;;;;;5050534;28;20505;-63
2022/10/02 00:12:28;;;;;;;11.30;1.38;;;36.00;57.20;;;;;;5053566;28;20033;-62
2022/10/02 00:15:10;;;;;;;12.75;1.90;;;36.00;57.30;;;;;;5049915;28;20025;-60
2022/10/02 00:17:41;;;;;;;17.05;1.75;;;35.90;57.40;;;;;;5051870;28;20367;-60
2022/10/02 00:20:16;;;;;;;4.35;1.15;;;35.90;57.00;;;;;;5049681;28;20115;-60
2022/10/02 00:23:14;;;;;;;4.38;1.10;;;35.80;57.20;;;;;;5050156;28;20035;-59
2022/10/02 00:26:04;;;;;;;6.15;1.15;;;35.80;57.40;;;;;;5048571;28;20032;-62
2022/10/02 00:28:35;;;;;;;5.75;1.30;;;35.60;57.70;;;;;;5047621;28;20103;-61
2022/10/02 00:31:34;;;;;;;10.07;1.58;;;35.60;58.20;;;;;;5047132;28;20057;-60
2022/10/02 00:34:28;;;;;;;8.10;1.65;;;35.60;58.90;;;;;;5048414;28;20039;-63
2022/10/02 00:37:19;;;;;;;4.72;1.65;;;35.50;59.30;;;;;;5049063;28;20049;-61
2022/10/02 00:40:12;;;;;;;13.00;2.10;;;35.40;59.40;;;;;;5044889;28;20044;-59
2022/10/02 00:42:54;;;;;;;7.15;1.92;;;35.20;59.70;;;;;;5051871;28;20118;-61
2022/10/02 00:45:48;;;;;;;7.30;2.00;;;35.20;59.80;;;;;;5054398;28;20150;-61
2022/10/02 00:48:36;;;;;;;6.97;1.70;;;35.10;59.70;;;;;;5060027;28;20064;-60
2022/10/02 00:51:11;;;;;;;12.00;1.98;;;35.00;59.10;;;;;;5048650;28;20108;-61
2022/10/02 00:53:40;;;;;;;7.03;1.63;;;35.00;59.20;;;;;;5049884;28;20042;-62
2022/10/02 00:56:15;;;;;;;9.13;1.98;;;34.90;59.80;;;;;;5054394;28;20029;-62
2022/10/02 00:59:07;;;;;;;14.73;1.80;;;34.80;59.90;;;;;;5047707;28;20025;-61
2022/10/02 01:01:44;;;;;;;10.15;1.90;;;34.70;59.90;;;;;;5049071;28;20068;-62
2022/10/02 01:04:19;;;;;;;9.40;1.73;;;34.70;60.30;;;;;;5047671;28;20478;-62
2022/10/02 01:06:46;;;;;;;18.67;2.05;;;34.60;61.20;;;;;;5051477;28;20104;-62
2022/10/02 01:09:12;;;;;;;8.85;1.98;;;34.50;62.10;;;;;;5052274;28;20025;-60
2022/10/02 01:11:39;;;;;;;11.50;1.95;;;34.40;62.40;;;;;;5050255;28;20056;-61
2022/10/02 01:14:05;;;;;;;14.23;1.90;;;34.40;62.70;;;;;;5049715;28;20127;-61
2022/10/02 01:16:32;;;;;;;9.70;1.80;;;34.30;62.70;;;;;;5052530;28;20078;-61
2022/10/02 01:18:58;;;;;;;7.55;1.90;;;34.20;62.90;;;;;;5052947;28;20025;-60
2022/10/02 01:21:43;;;;;;;18.25;2.88;;;34.10;62.90;;;;;;5048942;28;20024;-62
2022/10/02 01:24:17;;;;;;;15.25;2.28;;;34.10;63.20;;;;;;5048599;28;20021;-60
2022/10/02 01:26:44;;;;;;;13.35;1.83;;;34.00;63.20;;;;;;5052205;28;20078;-62
2022/10/02 01:29:10;;;;;;;18.58;2.28;;;34.00;63.00;;;;;;5047767;28;20049;-62
2022/10/02 01:31:37;;;;;;;12.25;2.33;;;33.90;62.80;;;;;;5048380;28;20075;-62
2022/10/02 01:34:04;;;;;;;8.65;2.30;;;33.90;62.60;;;;;;5047057;28;20095;-63
2022/10/02 01:36:31;;;;;;;10.98;2.22;;;33.80;62.40;;;;;;5048663;28;20025;-63
2022/10/02 01:38:58;;;;;;;14.48;2.60;;;33.80;62.60;;;;;;5054086;28;20026;-63
2022/10/02 01:41:25;;;;;;;13.52;2.47;;;33.70;62.70;;;;;;5047964;28;20025;-61
2022/10/02 01:43:56;;;;;;;18.77;2.70;;;33.70;62.90;;;;;;5050091;28;20021;-63
2022/10/02 01:46:45;;;;;;;9.85;2.13;;;33.60;62.90;;;;;;5053724;28;20033;-62
2022/10/02 01:49:46;;;;;;;17.23;2.90;;;33.60;63.20;;;;;;5033256;28;20033;-62
2022/10/02 01:52:22;;;;;;;21.67;3.40;;;33.50;63.20;;;;;;5017877;28;20069;-60
2022/10/02 01:55:06;;;;;;;14.00;2.55;;;33.50;63.20;;;;;;5053992;28;20028;-62
2022/10/02 01:57:55;;;;;;;14.23;3.00;;;33.40;63.10;;;;;;5052472;28;20051;-61
2022/10/02 02:00:24;;;;;;;16.35;2.70;;;33.30;63.20;;;;;;5059430;28;20028;-61
2022/10/02 02:03:06;;;;;;;12.38;2.42;;;33.30;63.00;;;;;;5051365;28;20025;-62
2022/10/02 02:05:59;;;;;;;10.73;1.85;;;33.30;62.10;;;;;;5056475;28;20037;-63
2022/10/02 02:08:37;;;;;;;10.73;2.40;;;33.20;62.10;;;;;;5051963;28;20456;-63
2022/10/02 02:11:20;;;;;;;12.20;1.50;;;33.10;61.60;;;;;;5051627;28;20038;-59
2022/10/02 02:14:05;;;;;;;11.32;1.80;;;33.10;61.00;;;;;;5056998;28;20115;-62
2022/10/02 02:16:54;;;;;;;7.78;2.00;;;32.90;60.60;;;;;;5058445;28;20023;-62
2022/10/02 02:19:33;;;;;;;16.10;2.13;;;32.90;60.80;;;;;;5056730;28;20051;-59
2022/10/02 02:22:06;;;;;;;14.15;1.65;;;32.80;60.40;;;;;;5059556;28;20047;-64
2022/10/02 02:24:40;;;;;;;9.45;1.98;;;32.80;60.40;;;;;;5049612;28;20455;-62
2022/10/02 02:27:13;;;;;;;13.02;1.83;;;32.90;60.70;;;;;;5050717;28;20029;-64
2022/10/02 02:29:42;;;;;;;13.85;1.63;;;32.80;61.30;;;;;;5059341;28;20032;-63
2022/10/02 02:32:14;;;;;;;6.70;1.48;;;32.80;62.00;;;;;;5057770;28;20041;-64
2022/10/02 02:34:50;;;;;;;10.40;1.60;;;32.80;62.50;;;;;;5059996;28;20021;-63
2022/10/02 02:37:19;;;;;;;12.20;1.40;;;32.80;62.90;;;;;;5059182;28;20068;-64
2022/10/02 02:39:54;;;;;;;9.45;1.70;;;32.80;63.50;;;;;;5060727;28;20032;-64
2022/10/02 02:42:24;;;;;;;11.50;1.73;;;32.70;64.10;;;;;;5052380;28;20025;-64
2022/10/02 02:44:59;;;;;;;10.63;2.08;;;32.60;64.50;;;;;;5058178;28;20281;-65
2022/10/02 02:47:58;;;;;;;8.27;2.20;;;32.70;65.10;;;;;;5056045;28;20029;-64
2022/10/02 02:50:36;;;;;;;8.88;2.03;;;32.70;65.50;;;;;;5050127;28;20044;-63
2022/10/02 02:53:25;;;;;;;15.10;2.17;;;32.60;65.40;;;;;;5054919;28;20415;-63
2022/10/02 02:55:59;;;;;;;12.77;2.67;;;32.50;65.90;;;;;;5053376;28;20021;-62
2022/10/02 02:58:50;;;;;;;8.93;2.00;;;32.60;66.40;;;;;;5052924;28;20091;-63
2022/10/02 03:01:17;;;;;;;13.98;1.58;;;32.50;66.60;;;;;;5048931;28;20099;-64
2022/10/02 03:03:44;;;;;;;8.70;1.80;;;32.40;66.60;;;;;;5053431;28;20032;-63
2022/10/02 03:06:56;;;;;;;14.07;2.40;;;31.60;66.10;;;;;;5054576;28;20021;-64
2022/10/02 03:09:24;;;;;;;15.30;1.88;;;32.40;67.10;;;;;;5058344;28;20048;-63
2022/10/02 03:12:29;;;;;;;10.77;2.20;;;32.40;67.90;;;;;;5056877;28;20112;-64
2022/10/02 03:15:13;;;;;;;17.10;2.90;;;32.30;68.40;;;;;;5022702;28;20542;-66
2022/10/02 03:18:15;;;;;;;12.15;2.28;;;32.30;69.10;;;;;;5056212;28;20056;-70
2022/10/02 03:21:15;;;;;;;12.18;2.13;;;32.20;69.80;;;;;;5038488;28;20082;-69
2022/10/02 03:24:16;;;;;;;9.23;2.08;;;32.10;70.10;;;;;;5055773;28;20025;-69
2022/10/02 03:26:52;;;;;;;17.42;2.00;;;32.10;70.80;;;;;;5051379;28;20040;-69
2022/10/02 03:29:32;;;;;;;15.90;2.03;;;32.00;71.00;;;;;;5059371;28;20021;-70
2022/10/02 03:32:01;;;;;;;11.10;1.58;;;32.10;71.20;;;;;;5055881;28;20032;-68
2022/10/02 03:34:30;;;;;;;6.97;1.73;;;32.10;71.60;;;;;;5057350;28;20064;-69
2022/10/02 03:36:57;;;;;;;9.15;2.03;;;32.00;71.50;;;;;;5062160;28;20424;-67
2022/10/02 03:39:23;;;;;;;13.48;1.90;;;32.00;71.50;;;;;;5055118;28;20022;-66
2022/10/02 03:41:49;;;;;;;9.60;1.98;;;32.00;71.80;;;;;;5057231;28;20692;-68
2022/10/02 03:44:16;;;;;;;10.93;2.03;;;31.90;72.00;;;;;;5051727;28;20116;-70
2022/10/02 03:46:42;;;;;;;18.73;2.50;;;30.40;71.40;;;;;;5058599;28;20024;-68
2022/10/02 03:49:09;;;;;;;11.57;2.97;;;31.90;72.80;;;;;;5055082;28;20036;-67
2022/10/02 03:51:35;;;;;;;21.98;2.45;;;31.90;73.10;;;;;;5057599;28;20024;-67
2022/10/02 03:54:02;;;;;;;10.27;2.58;;;31.90;73.40;;;;;;5057099;28;20025;-67
2022/10/02 03:56:40;;;;;;;6.53;2.15;;;31.90;73.70;;;;;;5061694;28;20431;-69
2022/10/02 03:59:17;;;;;;;12.07;2.28;;;31.80;74.10;;;;;;5059714;28;20509;-68
2022/10/02 04:01:49;;;;;;;17.13;2.50;;;31.80;74.50;;;;;;5060396;28;20097;-68
2022/10/02 04:04:20;;;;;;;8.27;2.35;;;31.80;74.70;;;;;;5053743;28;20112;-67
2022/10/02 04:07:10;;;;;;;7.53;2.60;;;31.70;74.70;;;;;;5059021;28;20031;-68
2022/10/02 04:10:02;;;;;;;8.82;2.45;;;31.60;75.30;;;;;;5064250;28;20033;-69
2022/10/02 04:12:35;;;;;;;13.25;3.00;;;31.70;75.10;;;;;;5052098;28;20037;-67
2022/10/02 04:15:20;;;;;;;8.98;2.35;;;31.70;75.40;;;;;;5058670;28;20032;-67
2022/10/02 04:18:23;;;;;;;8.95;2.22;;;31.60;75.60;;;;;;5057308;28;20083;-69
2022/10/02 04:20:55;;;;;;;7.93;2.17;;;31.60;75.90;;;;;;5028154;28;20060;-67
2022/10/02 04:23:46;;;;;;;6.80;2.40;;;31.50;76.00;;;;;;5028586;28;20034;-67
2022/10/02 04:26:29;;;;;;;13.05;4.60;;;31.40;76.20;;;;;;5028312;28;20032;-68
2022/10/02 04:29:19;;;;;;;8.05;3.38;;;31.40;76.60;;;;;;5033825;28;20044;-67
2022/10/02 04:31:55;;;;;;;17.05;4.90;;;31.50;76.70;;;;;;5034085;28;20598;-67
2022/10/02 04:34:22;;;;;;;18.60;5.25;;;31.40;76.80;;;;;;5036329;28;20083;-68
2022/10/02 04:37:03;;;;;;;21.23;6.05;;;31.30;76.90;;;;;;5034132;28;20447;-68
2022/10/02 04:39:42;;;;;;;20.30;7.10;;;31.40;77.10;;;;;;5023108;28;20022;-67
2022/10/02 04:42:26;;;;;;;23.48;8.18;;;31.30;76.40;;;;;;5022370;28;20623;-67
2022/10/02 04:45:19;;;;;;;24.08;8.82;;;31.30;76.20;;;;;;5023435;28;20131;-71
2022/10/02 04:47:58;;;;;;;26.55;6.63;;;31.30;75.80;;;;;;5028174;28;20573;-69
2022/10/02 04:50:39;;;;;;;20.38;6.30;;;31.20;75.50;;;;;;5028819;28;20056;-70
2022/10/02 04:53:43;;;;;;;16.55;4.95;;;31.20;75.70;;;;;;5027651;28;20029;-69
2022/10/02 04:56:15;;;;;;;18.75;4.88;;;31.20;75.40;;;;;;5030776;28;20038;-70
2022/10/02 04:59:16;;;;;;;16.48;4.30;;;31.20;75.40;;;;;;5058871;28;20028;-69
2022/10/02 05:02:06;;;;;;;15.55;4.53;;;31.20;75.10;;;;;;5058772;28;20021;-69
2022/10/02 05:04:59;;;;;;;29.75;4.20;;;31.20;75.30;;;;;;5057212;28;20067;-71
2022/10/02 05:07:56;;;;;;;19.63;5.13;;;31.20;75.10;;;;;;5058082;28;20035;-68
2022/10/02 05:10:37;;;;;;;16.65;4.03;;;31.10;75.20;;;;;;5051984;28;20028;-69
2022/10/02 05:13:29;;;;;;;19.27;4.25;;;31.10;75.70;;;;;;5054193;28;20039;-67
2022/10/02 05:16:20;;;;;;;23.98;4.88;;;31.10;76.10;;;;;;5057792;28;20436;-69
2022/10/02 05:18:59;;;;;;;19.05;4.70;;;31.00;76.60;;;;;;5053384;28;20033;-67
2022/10/02 05:21:47;;;;;;;18.80;4.20;;;31.00;76.90;;;;;;5054615;28;21320;-68
2022/10/02 05:24:33;;;;;;;17.70;3.75;;;31.00;77.40;;;;;;5057839;28;20390;-70
2022/10/02 05:27:12;;;;;;;17.98;3.75;;;30.90;77.80;;;;;;5052967;28;20373;-68
2022/10/02 05:29:47;;;;;;;18.38;4.70;;;31.00;78.40;;;;;;5052297;28;20474;-70
2022/10/02 05:32:43;;;;;;;18.17;4.28;;;30.90;78.60;;;;;;5057111;28;20389;-68
2022/10/02 05:35:10;;;;;;;24.75;5.50;;;30.80;79.10;;;;;;5054501;28;20106;-68
2022/10/02 05:37:42;;;;;;;24.88;4.97;;;30.80;79.20;;;;;;5058449;28;20023;-70
2022/10/02 05:40:27;;;;;;;20.83;4.55;;;30.80;79.40;;;;;;5052562;28;20071;-68
2022/10/02 05:43:09;;;;;;;23.42;4.13;;;30.70;79.50;;;;;;5061026;28;20032;-68
2022/10/02 05:45:55;;;;;;;16.60;3.85;;;30.70;79.80;;;;;;5047827;28;20032;-67
2022/10/02 05:48:47;;;;;;;18.92;4.38;;;30.70;80.20;;;;;;5058034;28;20017;-68
2022/10/02 05:51:21;;;;;;;18.38;4.40;;;30.70;80.20;;;;;;5057544;28;20028;-69
2022/10/02 05:54:03;;;;;;;15.75;4.00;;;30.60;80.40;;;;;;5056350;28;20103;-68
2022/10/02 05:56:40;;;;;;;16.90;4.18;;;30.60;80.60;;;;;;5055389;28;20095;-68
2022/10/02 05:59:12;;;;;;;;;;;30.60;80.90;;;;;;5055207;28;20099;-68
2022/10/02 06:01:46;;;;;;;20.52;4.80;;;30.60;81.00;;;;;;5057903;28;20323;-69
2022/10/02 06:04:15;;;;;;;14.85;4.63;;;30.50;81.20;;;;;;5055140;28;20017;-69
2022/10/02 06:06:50;;;;;;;20.42;5.07;;;30.50;81.40;;;;;;5057594;28;20031;-69
2022/10/02 06:09:43;;;;;;;13.73;3.50;;;30.40;82.10;;;;;;5052692;28;20021;-68
2022/10/02 06:12:41;;;;;;;15.35;3.88;;;30.40;83.40;;;;;;5026187;28;20083;-70
2022/10/02 06:15:24;;;;;;;21.50;4.55;;;30.40;83.90;;;;;;5017335;28;20040;-69
2022/10/02 06:17:59;;;;;;;27.65;4.63;;;30.30;85.30;;;;;;5021499;28;20038;-69
2022/10/02 06:20:34;;;;;;;15.02;4.80;;;30.20;86.50;;;;;;5023696;28;20025;-69
2022/10/02 06:23:07;;;;;;;15.90;5.15;;;30.20;88.00;;;;;;5007814;28;20037;-70
2022/10/02 06:25:43;;;;;;;6.97;3.63;;;30.00;89.10;;;;;;5017772;28;20025;-68
2022/10/02 06:28:26;;;;;;;10.20;3.97;;;30.00;89.50;;;;;;5023461;28;20502;-71
2022/10/02 06:31:20;;;;;;;10.13;4.45;;;30.00;90.00;;;;;;5035441;28;20108;-70
2022/10/02 06:33:46;;;;;;;12.93;4.53;;;29.90;90.10;;;;;;5028776;28;20034;-68
2022/10/02 06:36:51;;;;;;;17.52;4.78;;;29.90;90.40;;;;;;5021039;28;20042;-69
2022/10/02 06:39:39;;;;;;;17.08;5.22;;;29.70;90.80;;;;;;5033258;28;20026;-70
2022/10/02 06:42:12;;;;;;;21.67;4.55;;;29.60;91.20;;;;;;5025719;28;20042;-69
2022/10/02 06:44:57;;;;;;;16.55;4.72;;;29.60;91.60;;;;;;5031523;28;20063;-70
2022/10/02 06:48:05;;;;;;;17.98;4.03;;;29.60;92.00;;;;;;5026724;28;20028;-70
2022/10/02 06:50:49;;;;;;;19.27;4.45;;;29.50;92.40;;;;;;5057426;28;21238;-70
2022/10/02 06:53:37;;;;;;;17.73;4.13;;;29.50;92.70;;;;;;5063605;28;20056;-69
2022/10/02 06:56:35;;;;;;;21.42;5.10;;;29.30;93.20;;;;;;5058088;28;20033;-70
2022/10/02 06:59:34;;;;;;;17.25;5.00;;;29.40;93.50;;;;;;5060316;28;20027;-70
2022/10/02 07:02:19;;;;;;;13.02;4.68;;;29.30;93.70;;;;;;5054474;28;20509;-69
2022/10/02 07:05:06;;;;;;;20.55;4.07;;;29.20;94.10;;;;;;5064008;28;20111;-69
2022/10/02 07:08:09;;;;;;;16.85;4.20;;;29.10;94.30;;;;;;5072986;28;20218;-69
2022/10/02 07:10:56;;;;;;;10.77;3.72;;;29.10;94.60;;;;;;5059569;28;20025;-71
2022/10/02 07:13:59;;;;;;;18.77;4.25;;;29.20;94.60;;;;;;5059090;28;20020;-64
2022/10/02 07:16:26;;;;;;;22.85;4.30;;;29.20;94.60;;;;;;5063395;28;20025;-69
2022/10/02 07:19:05;;;;;;;15.93;3.72;;;29.20;94.60;;;;;;5060390;28;20040;-67
2022/10/02 07:21:46;;;;;;;19.63;4.22;;;29.20;94.60;;;;;;5060168;28;20032;-68
2022/10/02 07:24:26;;;;;;;14.40;4.55;;;29.30;94.70;;;;;;5059812;28;20017;-68
2022/10/02 07:26:55;;;;;;;16.70;4.13;;;29.20;94.80;;;;;;5058583;28;20024;-68
2022/10/02 07:29:40;;;;;;;26.17;4.68;;;29.20;94.90;;;;;;5059718;28;20013;-69
2022/10/02 07:32:37;;;;;;;16.05;4.45;;;29.20;95.10;;;;;;5055687;28;20021;-69
2022/10/02 07:35:13;;;;;;;13.98;5.00;;;29.20;95.40;;;;;;5058427;28;20028;-69
2022/10/02 07:38:03;;;;;;;14.43;4.90;;;29.20;95.70;;;;;;5054613;28;20039;-69
2022/10/02 07:40:35;;;;;;;14.85;4.70;;;29.10;96.00;;;;;;5050861;28;20513;-68
2022/10/02 07:43:17;;;;;;;13.85;5.40;;;29.10;96.40;;;;;;5057774;28;20117;-67
2022/10/02 07:45:56;;;;;;;20.33;6.40;;;29.00;96.70;;;;;;5058206;28;20052;-67
2022/10/02 07:48:40;;;;;;;22.05;6.13;;;29.00;97.00;;;;;;5055050;28;20067;-67
2022/10/02 07:51:46;;;;;;;15.65;5.45;;;29.00;97.40;;;;;;5054076;28;20021;-68
2022/10/02 07:54:33;;;;;;;15.20;5.28;;;29.00;97.80;;;;;;5059647;28;20390;-69
2022/10/02 07:57:21;;;;;;;15.97;5.57;;;29.00;98.00;;;;;;5056692;28;20364;-68
2022/10/02 07:59:50;;;;;;;14.43;5.30;;;29.00;98.30;;;;;;5055647;28;20349;-69
2022/10/02 08:02:31;;;;;;;14.48;5.68;;;29.00;98.40;;;;;;5057532;28;20147;-67
2022/10/02 08:05:02;;;;;;;15.48;5.63;;;28.90;98.60;;;;;;5054129;28;20055;-69
2022/10/02 08:07:30;;;;;;;17.48;5.35;;;28.90;99.00;;;;;;5053636;28;20074;-68
2022/10/02 08:10:02;;;;;;;11.75;4.43;;;28.90;99.20;;;;;;5059582;28;20043;-69
2022/10/02 08:12:38;;;;;;;17.15;4.13;;;28.90;99.40;;;;;;5058047;28;20025;-68
2022/10/02 08:15:11;;;;;;;9.13;3.70;;;28.90;99.60;;;;;;5051476;28;20029;-69
2022/10/02 08:17:43;;;;;;;16.08;4.13;;;28.80;99.90;;;;;;5059003;28;20035;-69
2022/10/02 08:20:26;;;;;;;13.25;3.72;;;28.90;99.90;;;;;;5051602;28;20021;-69
2022/10/02 08:23:08;;;;;;;13.52;3.65;;;28.80;99.90;;;;;;5055039;28;20029;-66
2022/10/02 08:25:47;;;;;;;12.40;3.88;;;28.80;99.90;;;;;;5055140;28;20029;-67
2022/10/02 08:28:56;;;;;;;13.45;3.53;;;28.80;99.90;;;;;;5054065;28;20052;-69
2022/10/02 08:31:24;;;;;;;13.80;3.55;;;28.80;99.90;;;;;;5057307;28;20528;-69
2022/10/02 08:33:50;;;;;;;11.07;3.53;;;28.70;99.90;;;;;;5058744;28;20401;-69
2022/10/02 08:36:37;;;;;;;11.43;3.50;;;28.70;99.90;;;;;;5055117;28;20012;-67
2022/10/02 08:39:36;;;;;;;12.00;3.40;;;28.70;99.90;;;;;;5055757;28;20083;-69
2022/10/02 08:42:17;;;;;;;9.63;3.50;;;28.60;99.90;;;;;;5026492;28;20521;-69
2022/10/02 08:45:11;;;;;;;9.43;3.03;;;28.70;99.90;;;;;;5054754;28;20027;-68
2022/10/02 08:48:22;;;;;;;10.00;3.60;;;28.70;99.90;;;;;;5049302;28;20039;-67
2022/10/02 08:51:09;;;;;;;13.68;3.42;;;28.60;99.90;;;;;;5034617;28;20491;-68
2022/10/02 08:53:41;;;;;;;14.88;4.15;;;28.60;99.90;;;;;;5031914;28;20072;-70
2022/10/02 08:56:28;;;;;;;11.43;3.90;;;28.60;99.90;;;;;;5033183;28;20482;-66
2022/10/02 08:59:04;;;;;;;11.30;3.65;;;28.60;99.90;;;;;;5033015;28;20135;-70
2022/10/02 09:01:59;;;;;;;14.50;4.10;;;28.50;99.90;;;;;;5034816;28;20029;-68
2022/10/02 09:04:43;;;;;;;15.25;4.15;;;28.40;99.90;;;;;;5032995;28;20036;-69
2022/10/02 09:07:29;;;;;;;9.35;3.97;;;28.40;99.90;;;;;;5035616;28;20033;-69
2022/10/02 09:10:26;;;;;;;12.40;3.70;;;28.40;99.90;;;;;;5035411;28;20418;-67
2022/10/02 09:13:27;;;;;;;21.02;4.55;;;28.40;99.90;;;;;;5035195;28;20061;-68
2022/10/02 09:16:10;;;;;;;14.48;3.85;;;28.40;99.90;;;;;;5050433;23;20049;-67
2022/10/02 09:19:08;;;;;;;12.82;3.83;;;28.40;99.90;;;;;;5029208;28;21520;-69
2022/10/02 09:21:59;;;;;;;10.10;2.90;;;28.30;99.90;;;;;;5017621;28;20057;-67
2022/10/02 09:24:47;;;;;;;11.25;3.65;;;28.40;99.90;;;;;;5028915;28;20030;-69
2022/10/02 09:27:23;;;;;;;9.88;3.50;;;28.40;99.90;;;;;;5029018;28;20399;-67
2022/10/02 09:30:14;;;;;;;14.40;3.40;;;28.30;99.90;;;;;;5028869;28;20030;-70
2022/10/02 09:32:59;;;;;;;15.48;3.53;;;28.30;99.90;;;;;;5028630;28;20033;-67
2022/10/02 09:36:02;;;;;;;11.40;3.58;;;28.20;99.90;;;;;;5029002;28;20475;-69
2022/10/02 09:39:00;;;;;;;9.55;3.35;;;28.20;99.90;;;;;;5028526;28;20036;-69
2022/10/02 09:41:48;;;;;;;10.73;3.38;;;28.20;99.90;;;;;;5029190;28;20073;-70
2022/10/02 09:44:35;;;;;;;12.18;3.30;;;28.20;99.90;;;;;;5026445;28;20169;-69
2022/10/02 09:47:18;;;;;;;8.57;3.65;;;28.20;99.90;;;;;;5028354;28;20026;-67
2022/10/02 09:49:56;;;;;;;12.75;3.25;;;28.20;99.90;;;;;;5027120;28;20048;-69
2022/10/02 09:53:01;;;;;;;12.95;3.33;;;28.20;99.90;;;;;;5028636;28;20467;-69
2022/10/02 09:55:52;;;;;;;9.48;3.33;;;28.10;99.90;;;;;;5025556;28;20168;-69
2022/10/02 09:58:37;;;;;;;12.57;3.58;;;28.10;99.90;;;;;;5021586;28;20022;-68
2022/10/02 10:01:27;;;;;;;11.85;3.28;;;28.10;99.90;;;;;;5020617;28;20559;-69
2022/10/02 10:03:57;;;;;;;13.15;3.50;;;28.00;99.90;;;;;;5017713;28;20065;-67
2022/10/02 10:06:53;;;;;;;11.13;3.13;;;28.10;99.90;;;;;;5024706;28;20025;-66
2022/10/02 10:09:50;;;;;;;9.10;2.85;;;28.10;99.90;;;;;;5022905;28;20028;-67
2022/10/02 10:12:48;;;;;;;8.75;2.70;;;28.00;99.90;;;;;;5029621;28;20386;-66
2022/10/02 10:15:49;;;;;;;8.25;2.47;;;28.00;99.90;;;;;;5029461;28;20048;-66
2022/10/02 10:19:03;;;;;;;14.20;3.10;;;28.00;99.90;;;;;;5028444;28;20079;-68
2022/10/02 10:21:47;;;;;;;9.70;3.10;;;28.00;99.90;;;;;;4995180;28;20295;-69
2022/10/02 10:24:35;;;;;;;11.75;3.15;;;27.90;99.90;;;;;;5021299;28;20018;-68
2022/10/02 10:27:13;;;;;;;12.68;3.92;;;27.90;99.90;;;;;;5026065;28;20030;-67
2022/10/02 10:29:56;;;;;;;13.63;4.40;;;27.90;99.90;;;;;;5023449;28;20026;-69
2022/10/02 10:32:34;;;;;;;11.73;3.65;;;27.80;99.90;;;;;;5024126;28;20107;-67
2022/10/02 10:35:15;;;;;;;10.25;3.45;;;27.90;99.90;;;;;;5025526;28;20382;-66
2022/10/02 10:41:29;;;;;;;9.25;3.28;;;27.80;99.90;;;;;;5024735;28;20513;-67
2022/10/02 10:44:11;;;;;;;11.38;3.60;;;27.80;99.90;;;;;;5026615;28;20036;-68
2022/10/02 10:47:01;;;;;;;15.13;3.40;;;27.80;99.90;;;;;;5026763;28;20041;-67
2022/10/02 10:49:31;;;;;;;13.35;3.50;;;27.90;99.90;;;;;;5027618;28;20410;-66
2022/10/02 10:52:29;;;;;;;9.95;3.58;;;27.80;99.90;;;;;;5025883;28;20108;-66
2022/10/02 10:55:37;;;;;;;11.18;3.30;;;27.80;99.90;;;;;;5023594;28;20475;-66
2022/10/02 10:58:22;;;;;;;10.35;3.15;;;27.70;99.90;;;;;;5014605;28;20037;-66
2022/10/02 11:01:19;;;;;;;14.60;4.03;;;27.70;99.90;;;;;;5021817;28;20030;-66
2022/10/02 11:04:18;;;;;;;15.07;4.88;;;27.80;99.90;;;;;;5015997;28;20038;-67
2022/10/02 11:07:06;;;;;;;10.25;3.50;;;27.70;99.90;;;;;;5011498;28;20200;-67
2022/10/02 11:09:47;;;;;;;11.93;3.53;;;27.70;99.90;;;;;;5018757;28;20026;-66
2022/10/02 11:12:22;;;;;;;10.95;3.17;;;27.60;99.90;;;;;;5024668;28;20117;-68
2022/10/02 11:15:16;;;;;;;11.00;3.53;;;27.60;99.90;;;;;;5024143;28;20022;-66
2022/10/02 11:17:52;;;;;;;10.20;3.30;;;27.60;99.90;;;;;;5019947;28;20064;-68
2022/10/02 11:20:39;;;;;;;10.75;3.35;;;27.60;99.90;;;;;;5023633;28;20128;-66
2022/10/02 11:23:31;;;;;;;10.80;3.40;;;27.60;99.90;;;;;;4999295;28;20542;-69
2022/10/02 11:26:26;;;;;;;10.57;3.90;;;27.60;99.90;;;;;;5022242;28;20038;-66
2022/10/02 11:29:05;;;;;;;14.27;3.65;;;27.60;99.90;;;;;;5029872;28;20485;-69
2022/10/02 11:31:45;;;;;;;8.73;3.08;;;27.60;99.90;;;;;;5023741;28;20026;-67
2022/10/02 11:34:45;;;;;;;11.23;3.83;;;27.60;99.90;;;;;;5024915;28;20533;-69
2022/10/02 11:37:36;;;;;;;11.00;3.55;;;27.60;99.90;;;;;;5024782;28;20021;-66
2022/10/02 11:40:25;;;;;;;11.10;3.67;;;27.60;99.90;;;;;;5020550;28;20392;-67
2022/10/02 11:43:01;;;;;;;14.13;4.00;;;27.60;99.90;;;;;;5022591;28;20030;-67
2022/10/02 11:45:46;;;;;;;8.85;3.33;;;27.60;99.90;;;;;;5020837;28;20025;-68
2022/10/02 11:48:22;;;;;;;13.45;3.65;;;27.50;99.90;;;;;;5024209;28;20034;-68
2022/10/02 11:51:08;;;;;;;12.38;3.70;;;27.50;99.90;;;;;;5026559;28;20056;-67
2022/10/02 11:53:56;;;;;;;11.55;3.25;;;27.50;99.90;;;;;;5025276;28;20117;-67
2022/10/02 11:56:45;;;;;;;8.75;3.85;;;27.50;99.90;;;;;;5026278;28;20032;-67
2022/10/02 11:59:28;;;;;;;10.00;3.40;;;27.50;99.90;;;;;;5020079;28;20034;-70
2022/10/02 12:02:14;;;;;;;11.18;4.38;;;27.50;99.90;;;;;;5020309;28;20037;-69
2022/10/02 12:05:02;;;;;;;11.57;3.78;;;27.50;99.90;;;;;;5023878;28;20036;-67
2022/10/02 12:07:46;;;;;;;9.32;3.25;;;27.50;99.90;;;;;;5024161;28;20096;-69
2022/10/02 12:11:09;;;;;;;10.57;4.30;;;27.50;99.90;;;;;;5022867;28;20479;-69
2022/10/02 12:14:02;;;;;;;14.63;4.07;;;27.50;99.90;;;;;;4979941;28;20045;-68
2022/10/02 12:16:51;;;;;;;13.52;4.10;;;27.40;99.90;;;;;;4984408;28;20146;-66
2022/10/02 12:28:51;;;;;;;10.82;3.53;;;27.40;99.90;;;;;;4981641;28;20037;-68
2022/10/02 12:31:50;;;;;;;17.45;3.97;;;27.20;99.90;;;;;;4977188;28;20582;-69
2022/10/02 12:34:30;;;;;;;15.57;4.25;;;27.20;99.90;;;;;;4977895;28;20515;-69
2022/10/02 12:37:07;;;;;;;11.80;4.00;;;27.30;99.90;;;;;;4981822;28;20474;-67
2022/10/02 12:40:03;;;;;;;8.15;3.35;;;27.30;99.90;;;;;;4979441;28;20074;-69
2022/10/02 12:42:51;;;;;;;10.77;3.50;;;27.20;99.90;;;;;;4983579;28;20475;-68
2022/10/02 12:45:33;;;;;;;11.23;3.45;;;27.20;99.90;;;;;;5026421;28;20413;-68
2022/10/02 12:48:25;;;;;;;9.63;3.17;;;27.20;99.90;;;;;;5026361;28;20026;-66
2022/10/02 12:51:26;;;;;;;13.40;3.38;;;27.30;99.90;;;;;;5022208;28;20067;-69
2022/10/02 12:54:20;;;;;;;14.50;4.07;;;27.30;99.90;;;;;;5025737;28;20033;-66
2022/10/02 12:57:54;;;;;;;14.48;4.68;;;27.30;99.90;;;;;;5021244;28;20383;-67
2022/10/02 13:00:46;;;;;;;13.30;4.45;;;27.30;99.90;;;;;;4996114;28;20525;-67
2022/10/02 13:03:31;;;;;;;14.82;3.78;;;27.30;99.90;;;;;;5019834;28;20029;-68
2022/10/02 13:06:18;;;;;;;15.13;4.10;;;27.20;99.90;;;;;;5023192;28;20502;-66
2022/10/02 13:08:53;;;;;;;14.00;3.53;;;27.30;99.90;;;;;;5015210;28;20057;-69
2022/10/02 13:11:32;;;;;;;13.02;3.30;;;27.20;99.90;;;;;;5020431;28;20026;-68
2022/10/02 13:14:10;;;;;;;14.23;3.70;;;27.20;99.90;;;;;;5023036;28;20037;-66
2022/10/02 13:16:45;;;;;;;13.60;4.10;;;27.20;99.90;;;;;;5021309;28;20040;-68
2022/10/02 13:19:30;;;;;;;8.68;3.20;;;27.20;99.90;;;;;;5021518;28;20025;-66
2022/10/02 13:22:30;;;;;;;15.93;3.85;;;27.20;99.90;;;;;;5021683;28;20075;-66
2022/10/02 13:25:24;;;;;;;14.48;4.07;;;27.20;99.90;;;;;;5007598;28;20071;-67
2022/10/02 13:28:24;;;;;;;9.95;4.03;;;27.20;99.90;;;;;;5023811;28;20030;-68
2022/10/02 13:31:25;;;;;;;11.43;3.72;;;27.10;99.90;;;;;;5019649;28;20053;-68
2022/10/02 13:34:06;;;;;;;13.70;3.72;;;27.10;99.90;;;;;;5016523;28;20171;-68
2022/10/02 13:36:35;;;;;;;14.90;4.07;;;27.10;99.90;;;;;;5023830;28;20029;-67
2022/10/02 13:39:31;;;;;;;10.07;4.10;;;27.10;99.90;;;;;;5022880;28;20456;-66
2022/10/02 13:42:06;;;;;;;19.15;4.35;;;27.20;99.90;;;;;;5014169;28;20057;-66
2022/10/02 13:44:47;;;;;;;14.18;3.97;;;27.20;99.90;;;;;;5017895;28;20476;-68
2022/10/02 13:47:45;;;;;;;15.43;4.38;;;27.10;99.90;;;;;;5022358;28;20112;-66
2022/10/02 13:50:15;;;;;;;13.35;3.58;;;27.20;99.90;;;;;;5014807;28;20037;-68
2022/10/02 13:53:09;;;;;;;14.60;4.47;;;27.10;99.90;;;;;;5020105;28;20034;-66
2022/10/02 13:55:46;;;;;;;13.80;5.05;;;27.20;99.90;;;;;;5022948;28;20021;-66
2022/10/02 13:58:25;;;;;;;12.90;4.05;;;27.20;99.90;;;;;;5023963;28;20018;-67
2022/10/02 14:01:13;;;;;;;14.82;4.38;;;27.20;99.90;;;;;;5018968;28;20053;-65
2022/10/02 14:04:04;;;;;;;13.48;4.13;;;27.20;99.90;;;;;;5027037;28;20140;-65
2022/10/02 14:06:43;;;;;;;16.27;4.80;;;27.20;99.90;;;;;;5016466;28;20490;-66
2022/10/02 14:09:12;;;;;;;14.57;4.78;;;27.20;99.90;;;;;;5018711;28;20026;-66
2022/10/02 14:12:04;;;;;;;18.17;4.78;;;27.30;99.90;;;;;;5023032;28;20033;-69
2022/10/02 14:15:04;;;;;;;13.43;4.95;;;27.30;99.90;;;;;;5025422;28;20025;-68